sensor_id;sensor_type;location;lat;lon;timestamp;temperature;humidity
65406;DHT22;52016;51.228;-2.322;2022-10-29T00:00:42;14.50;77.70
65406;DHT22;52016;51.228;-2.322;2022-10-29T00:04:24;14.50;77.60
65406;DHT22;52016;51.228;-2.322;2022-10-29T00:08:06;14.50;77.70
65406;DHT22;52016;51.228;-2.322;2022-10-29T00:11:48;14.50;77.80
65406;DHT22;52016;51.228;-2.322;2022-10-29T00:15:30;14.40;77.80
65406;DHT22;52016;51.228;-2.322;2022-10-29T00:19:11;14.40;77.90
65406;DHT22;52016;51.228;-2.322;2022-10-29T00:22:53;14.40;78.00
65406;DHT22;52016;51.228;-2.322;2022-10-29T00:26:36;14.40;78.00
65406;DHT22;52016;51.228;-2.322;2022-10-29T00:30:18;14.40;77.90
65406;DHT22;52016;51.228;-2.322;2022-10-29T00:33:59;14.40;77.90
65406;DHT22;52016;51.228;-2.322;2022-10-29T00:37:41;14.40;77.90
65406;DHT22;52016;51.228;-2.322;2022-10-29T00:41:26;14.40;77.90
65406;DHT22;52016;51.228;-2.322;2022-10-29T00:45:17;14.40;77.90
65406;DHT22;52016;51.228;-2.322;2022-10-29T00:49:00;14.40;78.30
65406;DHT22;52016;51.228;-2.322;2022-10-29T00:52:45;14.40;78.00
65406;DHT22;52016;51.228;-2.322;2022-10-29T00:56:30;14.40;78.00
65406;DHT22;52016;51.228;-2.322;2022-10-29T01:00:15;14.40;78.00
65406;DHT22;52016;51.228;-2.322;2022-10-29T01:03:57;14.40;78.10
65406;DHT22;52016;51.228;-2.322;2022-10-29T01:07:40;14.40;78.10
65406;DHT22;52016;51.228;-2.322;2022-10-29T01:12:03;14.40;78.30
65406;DHT22;52016;51.228;-2.322;2022-10-29T01:16:01;14.40;78.90
65406;DHT22;52016;51.228;-2.322;2022-10-29T01:20:06;14.50;78.50
65406;DHT22;52016;51.228;-2.322;2022-10-29T01:32:12;14.50;78.80
65406;DHT22;52016;51.228;-2.322;2022-10-29T01:48:14;14.70;80.80
65406;DHT22;52016;51.228;-2.322;2022-10-29T01:52:01;14.70;79.50
65406;DHT22;52016;51.228;-2.322;2022-10-29T01:55:43;14.70;80.10
65406;DHT22;52016;51.228;-2.322;2022-10-29T01:59:28;14.70;79.90
65406;DHT22;52016;51.228;-2.322;2022-10-29T02:03:46;14.70;79.90
65406;DHT22;52016;51.228;-2.322;2022-10-29T02:11:35;14.80;79.70
65406;DHT22;52016;51.228;-2.322;2022-10-29T02:15:32;14.80;80.70
65406;DHT22;52016;51.228;-2.322;2022-10-29T02:19:14;14.90;80.40
65406;DHT22;52016;51.228;-2.322;2022-10-29T02:22:57;14.90;80.10
65406;DHT22;52016;51.228;-2.322;2022-10-29T02:26:39;14.90;81.10
65406;DHT22;52016;51.228;-2.322;2022-10-29T02:30:21;14.90;81.60
65406;DHT22;52016;51.228;-2.322;2022-10-29T02:34:03;15.00;81.20
65406;DHT22;52016;51.228;-2.322;2022-10-29T02:37:46;14.90;81.10
65406;DHT22;52016;51.228;-2.322;2022-10-29T02:41:28;14.90;81.20
65406;DHT22;52016;51.228;-2.322;2022-10-29T02:45:10;15.00;81.10
65406;DHT22;52016;51.228;-2.322;2022-10-29T02:48:52;15.00;81.30
65406;DHT22;52016;51.228;-2.322;2022-10-29T02:52:34;15.00;81.10
65406;DHT22;52016;51.228;-2.322;2022-10-29T02:56:16;14.90;81.40
65406;DHT22;52016;51.228;-2.322;2022-10-29T02:59:58;14.90;81.40
65406;DHT22;52016;51.228;-2.322;2022-10-29T03:03:41;14.90;81.80
65406;DHT22;52016;51.228;-2.322;2022-10-29T03:07:23;14.90;81.90
65406;DHT22;52016;51.228;-2.322;2022-10-29T03:11:05;14.90;81.90
65406;DHT22;52016;51.228;-2.322;2022-10-29T03:14:47;14.90;82.10
65406;DHT22;52016;51.228;-2.322;2022-10-29T03:18:30;14.90;82.10
65406;DHT22;52016;51.228;-2.322;2022-10-29T03:22:12;15.00;82.50
65406;DHT22;52016;51.228;-2.322;2022-10-29T03:25:55;15.00;82.30
65406;DHT22;52016;51.228;-2.322;2022-10-29T03:29:37;14.90;81.90
65406;DHT22;52016;51.228;-2.322;2022-10-29T03:33:19;15.00;82.10
65406;DHT22;52016;51.228;-2.322;2022-10-29T03:37:01;15.00;81.90
65406;DHT22;52016;51.228;-2.322;2022-10-29T03:40:43;15.10;82.30
65406;DHT22;52016;51.228;-2.322;2022-10-29T03:44:25;15.00;82.20
65406;DHT22;52016;51.228;-2.322;2022-10-29T03:48:08;15.00;82.30
65406;DHT22;52016;51.228;-2.322;2022-10-29T03:51:50;15.00;82.30
65406;DHT22;52016;51.228;-2.322;2022-10-29T03:55:32;15.00;82.00
65406;DHT22;52016;51.228;-2.322;2022-10-29T03:59:14;15.00;81.90
65406;DHT22;52016;51.228;-2.322;2022-10-29T04:02:56;15.00;81.80
65406;DHT22;52016;51.228;-2.322;2022-10-29T04:06:39;14.90;82.10
65406;DHT22;52016;51.228;-2.322;2022-10-29T04:10:21;14.90;81.80
65406;DHT22;52016;51.228;-2.322;2022-10-29T04:14:04;14.90;81.70
65406;DHT22;52016;51.228;-2.322;2022-10-29T04:17:49;14.90;81.90
65406;DHT22;52016;51.228;-2.322;2022-10-29T04:21:32;14.90;81.90
65406;DHT22;52016;51.228;-2.322;2022-10-29T04:25:34;14.90;81.90
65406;DHT22;52016;51.228;-2.322;2022-10-29T04:29:36;15.00;82.00
65406;DHT22;52016;51.228;-2.322;2022-10-29T04:33:18;14.90;82.10
65406;DHT22;52016;51.228;-2.322;2022-10-29T04:37:01;14.90;82.10
65406;DHT22;52016;51.228;-2.322;2022-10-29T04:40:43;14.90;82.40
65406;DHT22;52016;51.228;-2.322;2022-10-29T04:44:25;14.90;82.20
65406;DHT22;52016;51.228;-2.322;2022-10-29T04:48:08;14.90;82.40
65406;DHT22;52016;51.228;-2.322;2022-10-29T04:51:50;14.90;82.30
65406;DHT22;52016;51.228;-2.322;2022-10-29T04:55:36;15.00;82.40
65406;DHT22;52016;51.228;-2.322;2022-10-29T04:59:19;15.00;82.30
65406;DHT22;52016;51.228;-2.322;2022-10-29T05:03:01;15.00;82.50
65406;DHT22;52016;51.228;-2.322;2022-10-29T05:06:43;15.10;82.50
65406;DHT22;52016;51.228;-2.322;2022-10-29T05:10:33;15.10;82.80
65406;DHT22;52016;51.228;-2.322;2022-10-29T05:14:16;15.10;82.70
65406;DHT22;52016;51.228;-2.322;2022-10-29T05:17:59;15.10;82.90
65406;DHT22;52016;51.228;-2.322;2022-10-29T05:21:41;15.20;82.90
65406;DHT22;52016;51.228;-2.322;2022-10-29T05:25:23;15.20;83.20
65406;DHT22;52016;51.228;-2.322;2022-10-29T05:29:05;15.20;83.30
65406;DHT22;52016;51.228;-2.322;2022-10-29T05:32:48;15.20;83.70
65406;DHT22;52016;51.228;-2.322;2022-10-29T05:36:30;15.20;84.30
65406;DHT22;52016;51.228;-2.322;2022-10-29T05:40:12;15.20;83.50
65406;DHT22;52016;51.228;-2.322;2022-10-29T05:43:54;15.20;83.90
65406;DHT22;52016;51.228;-2.322;2022-10-29T05:47:36;15.20;83.90
65406;DHT22;52016;51.228;-2.322;2022-10-29T05:51:18;15.20;84.00
65406;DHT22;52016;51.228;-2.322;2022-10-29T05:55:01;15.20;84.40
65406;DHT22;52016;51.228;-2.322;2022-10-29T05:58:43;15.30;84.40
65406;DHT22;52016;51.228;-2.322;2022-10-29T06:02:26;15.30;84.80
65406;DHT22;52016;51.228;-2.322;2022-10-29T06:06:08;15.40;84.20
65406;DHT22;52016;51.228;-2.322;2022-10-29T06:09:50;15.40;84.20
65406;DHT22;52016;51.228;-2.322;2022-10-29T06:13:32;15.40;84.40
65406;DHT22;52016;51.228;-2.322;2022-10-29T06:17:14;15.40;84.50
65406;DHT22;52016;51.228;-2.322;2022-10-29T06:20:58;15.40;84.10
65406;DHT22;52016;51.228;-2.322;2022-10-29T06:24:41;15.40;84.00
65406;DHT22;52016;51.228;-2.322;2022-10-29T06:28:23;15.50;84.20
65406;DHT22;52016;51.228;-2.322;2022-10-29T06:32:08;15.50;84.10
65406;DHT22;52016;51.228;-2.322;2022-10-29T06:35:50;15.60;84.00
65406;DHT22;52016;51.228;-2.322;2022-10-29T06:39:33;15.60;84.00
65406;DHT22;52016;51.228;-2.322;2022-10-29T06:43:15;15.60;84.30
65406;DHT22;52016;51.228;-2.322;2022-10-29T06:46:57;15.60;84.20
65406;DHT22;52016;51.228;-2.322;2022-10-29T06:50:39;15.60;84.20
65406;DHT22;52016;51.228;-2.322;2022-10-29T06:54:21;15.60;84.10
65406;DHT22;52016;51.228;-2.322;2022-10-29T06:58:15;15.60;84.30
65406;DHT22;52016;51.228;-2.322;2022-10-29T07:01:57;15.60;84.20
65406;DHT22;52016;51.228;-2.322;2022-10-29T07:05:39;15.60;84.40
65406;DHT22;52016;51.228;-2.322;2022-10-29T07:09:22;15.60;84.40
65406;DHT22;52016;51.228;-2.322;2022-10-29T07:13:04;15.60;84.20
65406;DHT22;52016;51.228;-2.322;2022-10-29T07:16:46;15.70;84.20
65406;DHT22;52016;51.228;-2.322;2022-10-29T07:20:31;15.70;84.20
65406;DHT22;52016;51.228;-2.322;2022-10-29T07:24:14;15.80;84.20
65406;DHT22;52016;51.228;-2.322;2022-10-29T07:28:13;15.80;84.30
65406;DHT22;52016;51.228;-2.322;2022-10-29T07:31:56;15.90;84.40
65406;DHT22;52016;51.228;-2.322;2022-10-29T07:35:38;15.90;84.30
65406;DHT22;52016;51.228;-2.322;2022-10-29T07:39:20;15.90;84.40
65406;DHT22;52016;51.228;-2.322;2022-10-29T07:43:03;16.00;84.20
65406;DHT22;52016;51.228;-2.322;2022-10-29T07:46:45;16.00;84.60
65406;DHT22;52016;51.228;-2.322;2022-10-29T07:50:29;16.00;84.40
65406;DHT22;52016;51.228;-2.322;2022-10-29T07:54:11;16.10;84.40
65406;DHT22;52016;51.228;-2.322;2022-10-29T07:57:56;16.10;84.60
65406;DHT22;52016;51.228;-2.322;2022-10-29T08:01:39;16.20;84.40
65406;DHT22;52016;51.228;-2.322;2022-10-29T08:05:22;16.20;84.30
65406;DHT22;52016;51.228;-2.322;2022-10-29T08:09:05;16.30;84.30
65406;DHT22;52016;51.228;-2.322;2022-10-29T08:12:51;16.30;84.60
65406;DHT22;52016;51.228;-2.322;2022-10-29T08:16:33;16.40;84.40
65406;DHT22;52016;51.228;-2.322;2022-10-29T08:20:16;16.40;84.40
65406;DHT22;52016;51.228;-2.322;2022-10-29T08:23:58;16.40;84.30
65406;DHT22;52016;51.228;-2.322;2022-10-29T08:27:40;16.50;84.40
65406;DHT22;52016;51.228;-2.322;2022-10-29T08:31:22;16.60;84.30
65406;DHT22;52016;51.228;-2.322;2022-10-29T08:35:04;16.70;84.30
65406;DHT22;52016;51.228;-2.322;2022-10-29T08:38:46;16.70;84.20
65406;DHT22;52016;51.228;-2.322;2022-10-29T08:46:43;16.90;84.00
65406;DHT22;52016;51.228;-2.322;2022-10-29T08:50:29;17.00;83.90
65406;DHT22;52016;51.228;-2.322;2022-10-29T08:54:14;17.10;83.80
65406;DHT22;52016;51.228;-2.322;2022-10-29T08:58:36;17.20;83.60
65406;DHT22;52016;51.228;-2.322;2022-10-29T09:02:21;17.30;83.70
65406;DHT22;52016;51.228;-2.322;2022-10-29T09:14:11;17.40;83.20
65406;DHT22;52016;51.228;-2.322;2022-10-29T09:30:21;17.70;82.60
65406;DHT22;52016;51.228;-2.322;2022-10-29T09:34:16;17.80;82.60
65406;DHT22;52016;51.228;-2.322;2022-10-29T09:38:01;17.90;82.50
65406;DHT22;52016;51.228;-2.322;2022-10-29T09:41:52;17.90;82.40
65406;DHT22;52016;51.228;-2.322;2022-10-29T09:45:51;17.90;82.30
65406;DHT22;52016;51.228;-2.322;2022-10-29T09:53:23;17.90;82.20
65406;DHT22;52016;51.228;-2.322;2022-10-29T09:57:06;18.00;82.10
65406;DHT22;52016;51.228;-2.322;2022-10-29T10:00:54;18.00;82.10
65406;DHT22;52016;51.228;-2.322;2022-10-29T10:04:44;18.00;81.90
65406;DHT22;52016;51.228;-2.322;2022-10-29T10:08:29;18.10;81.90
65406;DHT22;52016;51.228;-2.322;2022-10-29T10:12:11;18.20;81.70
65406;DHT22;52016;51.228;-2.322;2022-10-29T10:15:55;18.30;81.60
65406;DHT22;52016;51.228;-2.322;2022-10-29T10:19:45;18.30;81.70
65406;DHT22;52016;51.228;-2.322;2022-10-29T10:27:28;18.60;81.40
65406;DHT22;52016;51.228;-2.322;2022-10-29T10:31:15;18.70;81.10
65406;DHT22;52016;51.228;-2.322;2022-10-29T10:34:57;18.80;81.10
65406;DHT22;52016;51.228;-2.322;2022-10-29T10:39:12;18.90;80.80
65406;DHT22;52016;51.228;-2.322;2022-10-29T10:42:56;18.90;79.10
65406;DHT22;52016;51.228;-2.322;2022-10-29T10:46:41;19.10;80.70
65406;DHT22;52016;51.228;-2.322;2022-10-29T10:50:25;19.10;80.30
65406;DHT22;52016;51.228;-2.322;2022-10-29T10:58:26;19.20;79.50
65406;DHT22;52016;51.228;-2.322;2022-10-29T11:02:32;19.40;79.90
65406;DHT22;52016;51.228;-2.322;2022-10-29T11:06:32;19.60;79.90
65406;DHT22;52016;51.228;-2.322;2022-10-29T11:10:17;19.90;78.10
65406;DHT22;52016;51.228;-2.322;2022-10-29T11:14:06;20.00;80.10
65406;DHT22;52016;51.228;-2.322;2022-10-29T11:17:57;20.10;79.10
65406;DHT22;52016;51.228;-2.322;2022-10-29T11:30:19;20.50;73.90
65406;DHT22;52016;51.228;-2.322;2022-10-29T11:34:14;20.60;78.30
65406;DHT22;52016;51.228;-2.322;2022-10-29T11:38:49;20.70;75.00
65406;DHT22;52016;51.228;-2.322;2022-10-29T11:42:07;20.90;75.50
65406;DHT22;52016;51.228;-2.322;2022-10-29T11:45:57;20.90;76.80
65406;DHT22;52016;51.228;-2.322;2022-10-29T11:50:26;21.10;76.00
65406;DHT22;52016;51.228;-2.322;2022-10-29T12:10:11;22.40;75.20
65406;DHT22;52016;51.228;-2.322;2022-10-29T12:14:35;22.60;71.20
65406;DHT22;52016;51.228;-2.322;2022-10-29T12:18:40;22.70;70.20
65406;DHT22;52016;51.228;-2.322;2022-10-29T12:22:40;22.80;72.90
65406;DHT22;52016;51.228;-2.322;2022-10-29T12:30:31;22.90;66.70
65406;DHT22;52016;51.228;-2.322;2022-10-29T12:34:29;22.90;70.90
65406;DHT22;52016;51.228;-2.322;2022-10-29T12:42:21;23.30;66.00
65406;DHT22;52016;51.228;-2.322;2022-10-29T12:46:47;23.10;64.20
65406;DHT22;52016;51.228;-2.322;2022-10-29T13:14:11;21.90;68.10
65406;DHT22;52016;51.228;-2.322;2022-10-29T13:17:56;21.80;68.10
65406;DHT22;52016;51.228;-2.322;2022-10-29T13:22:01;21.50;68.50
65406;DHT22;52016;51.228;-2.322;2022-10-29T13:25:44;21.40;68.00
65406;DHT22;52016;51.228;-2.322;2022-10-29T13:30:28;21.30;69.20
65406;DHT22;52016;51.228;-2.322;2022-10-29T13:41:49;21.20;69.00
65406;DHT22;52016;51.228;-2.322;2022-10-29T13:45:32;21.10;69.20
65406;DHT22;52016;51.228;-2.322;2022-10-29T13:49:25;20.90;69.70
65406;DHT22;52016;51.228;-2.322;2022-10-29T13:53:11;20.90;69.80
65406;DHT22;52016;51.228;-2.322;2022-10-29T13:56:59;20.90;70.00
65406;DHT22;52016;51.228;-2.322;2022-10-29T14:00:43;20.90;69.70
65406;DHT22;52016;51.228;-2.322;2022-10-29T14:04:30;20.90;70.10
65406;DHT22;52016;51.228;-2.322;2022-10-29T14:12:05;20.70;70.20
65406;DHT22;52016;51.228;-2.322;2022-10-29T14:16:08;20.60;70.40
65406;DHT22;52016;51.228;-2.322;2022-10-29T14:19:51;20.50;70.80
65406;DHT22;52016;51.228;-2.322;2022-10-29T14:23:33;20.50;70.80
65406;DHT22;52016;51.228;-2.322;2022-10-29T14:27:14;20.40;71.00
65406;DHT22;52016;51.228;-2.322;2022-10-29T14:34:52;20.40;70.20
65406;DHT22;52016;51.228;-2.322;2022-10-29T14:38:52;20.40;70.70
65406;DHT22;52016;51.228;-2.322;2022-10-29T14:42:43;20.30;70.00
65406;DHT22;52016;51.228;-2.322;2022-10-29T14:46:27;20.20;70.10
65406;DHT22;52016;51.228;-2.322;2022-10-29T14:50:19;20.30;70.50
65406;DHT22;52016;51.228;-2.322;2022-10-29T14:54:02;20.10;69.40
65406;DHT22;52016;51.228;-2.322;2022-10-29T14:58:13;20.10;70.20
65406;DHT22;52016;51.228;-2.322;2022-10-29T15:01:55;20.00;69.60
65406;DHT22;52016;51.228;-2.322;2022-10-29T15:06:17;19.90;70.10
65406;DHT22;52016;51.228;-2.322;2022-10-29T15:10:18;19.90;69.70
65406;DHT22;52016;51.228;-2.322;2022-10-29T15:14:02;19.80;69.90
65406;DHT22;52016;51.228;-2.322;2022-10-29T15:21:38;19.70;69.60
65406;DHT22;52016;51.228;-2.322;2022-10-29T15:25:35;19.60;70.30
65406;DHT22;52016;51.228;-2.322;2022-10-29T15:29:25;19.50;70.20
65406;DHT22;52016;51.228;-2.322;2022-10-29T15:33:21;19.50;70.50
65406;DHT22;52016;51.228;-2.322;2022-10-29T15:41:29;19.40;70.10
65406;DHT22;52016;51.228;-2.322;2022-10-29T15:45:20;19.30;70.30
65406;DHT22;52016;51.228;-2.322;2022-10-29T15:49:02;19.10;70.30
65406;DHT22;52016;51.228;-2.322;2022-10-29T15:52:53;19.10;70.40
65406;DHT22;52016;51.228;-2.322;2022-10-29T15:56:36;19.00;70.50
65406;DHT22;52016;51.228;-2.322;2022-10-29T16:00:20;18.90;70.60
65406;DHT22;52016;51.228;-2.322;2022-10-29T16:04:02;18.80;70.80
65406;DHT22;52016;51.228;-2.322;2022-10-29T16:07:45;18.80;70.80
65406;DHT22;52016;51.228;-2.322;2022-10-29T16:11:28;18.70;71.00
65406;DHT22;52016;51.228;-2.322;2022-10-29T16:15:15;18.60;71.20
65406;DHT22;52016;51.228;-2.322;2022-10-29T16:18:57;18.50;71.40
65406;DHT22;52016;51.228;-2.322;2022-10-29T16:22:39;18.40;71.60
65406;DHT22;52016;51.228;-2.322;2022-10-29T16:26:24;18.30;71.80
65406;DHT22;52016;51.228;-2.322;2022-10-29T16:30:07;18.20;72.20
65406;DHT22;52016;51.228;-2.322;2022-10-29T16:33:50;18.10;72.30
65406;DHT22;52016;51.228;-2.322;2022-10-29T16:37:32;18.10;72.50
65406;DHT22;52016;51.228;-2.322;2022-10-29T16:41:15;18.00;72.60
65406;DHT22;52016;51.228;-2.322;2022-10-29T16:44:58;18.00;72.90
65406;DHT22;52016;51.228;-2.322;2022-10-29T16:48:40;17.90;72.80
65406;DHT22;52016;51.228;-2.322;2022-10-29T16:52:21;17.90;73.00
65406;DHT22;52016;51.228;-2.322;2022-10-29T16:56:06;17.90;73.10
65406;DHT22;52016;51.228;-2.322;2022-10-29T16:59:48;17.80;73.10
65406;DHT22;52016;51.228;-2.322;2022-10-29T17:03:29;17.80;73.30
65406;DHT22;52016;51.228;-2.322;2022-10-29T17:07:11;17.70;73.40
65406;DHT22;52016;51.228;-2.322;2022-10-29T17:10:57;17.70;73.50
65406;DHT22;52016;51.228;-2.322;2022-10-29T17:14:39;17.60;73.70
65406;DHT22;52016;51.228;-2.322;2022-10-29T17:18:20;17.60;73.80
65406;DHT22;52016;51.228;-2.322;2022-10-29T17:22:04;17.50;73.90
65406;DHT22;52016;51.228;-2.322;2022-10-29T17:25:52;17.40;73.90
65406;DHT22;52016;51.228;-2.322;2022-10-29T17:29:35;17.40;74.20
65406;DHT22;52016;51.228;-2.322;2022-10-29T17:33:17;17.40;74.20
65406;DHT22;52016;51.228;-2.322;2022-10-29T17:36:59;17.40;74.20
65406;DHT22;52016;51.228;-2.322;2022-10-29T17:40:44;17.30;74.40
65406;DHT22;52016;51.228;-2.322;2022-10-29T17:44:26;17.30;74.50
65406;DHT22;52016;51.228;-2.322;2022-10-29T17:48:08;17.20;74.40
65406;DHT22;52016;51.228;-2.322;2022-10-29T17:51:50;17.10;74.50
65406;DHT22;52016;51.228;-2.322;2022-10-29T17:55:32;17.10;74.70
65406;DHT22;52016;51.228;-2.322;2022-10-29T17:59:14;17.10;74.90
65406;DHT22;52016;51.228;-2.322;2022-10-29T18:02:55;17.00;74.90
65406;DHT22;52016;51.228;-2.322;2022-10-29T18:06:37;17.00;75.00
65406;DHT22;52016;51.228;-2.322;2022-10-29T18:10:19;16.90;75.00
65406;DHT22;52016;51.228;-2.322;2022-10-29T18:14:00;16.90;75.10
65406;DHT22;52016;51.228;-2.322;2022-10-29T18:17:42;16.80;75.30
65406;DHT22;52016;51.228;-2.322;2022-10-29T18:21:24;16.80;75.40
65406;DHT22;52016;51.228;-2.322;2022-10-29T18:25:07;16.80;75.30
65406;DHT22;52016;51.228;-2.322;2022-10-29T18:28:50;16.70;75.60
65406;DHT22;52016;51.228;-2.322;2022-10-29T18:32:32;16.70;75.60
65406;DHT22;52016;51.228;-2.322;2022-10-29T18:36:13;16.60;75.70
65406;DHT22;52016;51.228;-2.322;2022-10-29T18:39:55;16.50;75.70
65406;DHT22;52016;51.228;-2.322;2022-10-29T18:43:39;16.50;75.80
65406;DHT22;52016;51.228;-2.322;2022-10-29T18:47:21;16.40;75.90
65406;DHT22;52016;51.228;-2.322;2022-10-29T18:51:11;16.40;76.00
65406;DHT22;52016;51.228;-2.322;2022-10-29T18:54:53;16.40;76.00
65406;DHT22;52016;51.228;-2.322;2022-10-29T18:58:34;16.30;76.10
65406;DHT22;52016;51.228;-2.322;2022-10-29T19:02:16;16.30;76.20
65406;DHT22;52016;51.228;-2.322;2022-10-29T19:06:03;16.20;76.40
65406;DHT22;52016;51.228;-2.322;2022-10-29T19:09:46;16.20;76.50
65406;DHT22;52016;51.228;-2.322;2022-10-29T19:13:28;16.20;76.40
65406;DHT22;52016;51.228;-2.322;2022-10-29T19:17:10;16.10;76.50
65406;DHT22;52016;51.228;-2.322;2022-10-29T19:20:52;16.10;76.60
65406;DHT22;52016;51.228;-2.322;2022-10-29T19:24:33;16.10;76.70
65406;DHT22;52016;51.228;-2.322;2022-10-29T19:28:15;16.10;76.60
65406;DHT22;52016;51.228;-2.322;2022-10-29T19:31:57;16.10;76.50
65406;DHT22;52016;51.228;-2.322;2022-10-29T19:35:39;16.00;76.60
65406;DHT22;52016;51.228;-2.322;2022-10-29T19:39:20;16.00;76.70
65406;DHT22;52016;51.228;-2.322;2022-10-29T19:43:02;15.90;76.90
65406;DHT22;52016;51.228;-2.322;2022-10-29T19:46:44;15.90;76.90
65406;DHT22;52016;51.228;-2.322;2022-10-29T19:50:26;15.90;77.00
65406;DHT22;52016;51.228;-2.322;2022-10-29T19:54:07;15.90;77.10
65406;DHT22;52016;51.228;-2.322;2022-10-29T19:57:49;15.90;77.30
65406;DHT22;52016;51.228;-2.322;2022-10-29T20:01:31;15.90;77.20
65406;DHT22;52016;51.228;-2.322;2022-10-29T20:05:13;15.90;77.40
65406;DHT22;52016;51.228;-2.322;2022-10-29T20:08:55;15.80;77.30
65406;DHT22;52016;51.228;-2.322;2022-10-29T20:12:36;15.80;77.30
65406;DHT22;52016;51.228;-2.322;2022-10-29T20:16:19;15.80;77.50
65406;DHT22;52016;51.228;-2.322;2022-10-29T20:20:01;15.80;77.60
65406;DHT22;52016;51.228;-2.322;2022-10-29T20:23:44;15.80;77.60
65406;DHT22;52016;51.228;-2.322;2022-10-29T20:27:25;15.80;77.60
65406;DHT22;52016;51.228;-2.322;2022-10-29T20:34:58;15.80;78.10
65406;DHT22;52016;51.228;-2.322;2022-10-29T20:38:40;15.80;77.70
65406;DHT22;52016;51.228;-2.322;2022-10-29T20:42:22;15.80;77.70
65406;DHT22;52016;51.228;-2.322;2022-10-29T20:46:03;15.70;77.70
65406;DHT22;52016;51.228;-2.322;2022-10-29T20:49:45;15.70;77.80
65406;DHT22;52016;51.228;-2.322;2022-10-29T20:53:27;15.60;77.90
65406;DHT22;52016;51.228;-2.322;2022-10-29T20:57:09;15.60;78.10
65406;DHT22;52016;51.228;-2.322;2022-10-29T21:00:51;15.60;78.10
65406;DHT22;52016;51.228;-2.322;2022-10-29T21:04:33;15.60;78.00
65406;DHT22;52016;51.228;-2.322;2022-10-29T21:08:15;15.60;78.00
65406;DHT22;52016;51.228;-2.322;2022-10-29T21:11:57;15.60;78.10
65406;DHT22;52016;51.228;-2.322;2022-10-29T21:15:39;15.60;78.20
65406;DHT22;52016;51.228;-2.322;2022-10-29T21:19:20;15.50;78.30
65406;DHT22;52016;51.228;-2.322;2022-10-29T21:23:03;15.60;78.20
65406;DHT22;52016;51.228;-2.322;2022-10-29T21:26:45;15.60;78.20
65406;DHT22;52016;51.228;-2.322;2022-10-29T21:30:28;15.60;78.10
65406;DHT22;52016;51.228;-2.322;2022-10-29T21:34:10;15.50;78.10
65406;DHT22;52016;51.228;-2.322;2022-10-29T21:37:52;15.60;78.20
65406;DHT22;52016;51.228;-2.322;2022-10-29T21:41:34;15.60;78.30
65406;DHT22;52016;51.228;-2.322;2022-10-29T21:45:16;15.60;78.30
65406;DHT22;52016;51.228;-2.322;2022-10-29T21:48:58;15.60;78.40
65406;DHT22;52016;51.228;-2.322;2022-10-29T21:52:40;15.60;78.40
65406;DHT22;52016;51.228;-2.322;2022-10-29T21:56:22;15.60;78.50
65406;DHT22;52016;51.228;-2.322;2022-10-29T22:00:10;15.60;78.40
65406;DHT22;52016;51.228;-2.322;2022-10-29T22:03:53;15.60;78.50
65406;DHT22;52016;51.228;-2.322;2022-10-29T22:07:36;15.60;78.40
65406;DHT22;52016;51.228;-2.322;2022-10-29T22:11:18;15.60;78.60
65406;DHT22;52016;51.228;-2.322;2022-10-29T22:15:00;15.60;78.50
65406;DHT22;52016;51.228;-2.322;2022-10-29T22:18:43;15.70;78.50
65406;DHT22;52016;51.228;-2.322;2022-10-29T22:22:25;15.70;78.50
65406;DHT22;52016;51.228;-2.322;2022-10-29T22:26:07;15.70;78.60
65406;DHT22;52016;51.228;-2.322;2022-10-29T22:29:49;15.70;78.60
65406;DHT22;52016;51.228;-2.322;2022-10-29T22:33:35;15.70;78.50
65406;DHT22;52016;51.228;-2.322;2022-10-29T22:37:17;15.70;78.50
65406;DHT22;52016;51.228;-2.322;2022-10-29T22:41:07;15.70;78.50
65406;DHT22;52016;51.228;-2.322;2022-10-29T22:44:50;15.80;78.60
65406;DHT22;52016;51.228;-2.322;2022-10-29T22:48:32;15.80;78.50
65406;DHT22;52016;51.228;-2.322;2022-10-29T22:52:14;15.80;78.50
65406;DHT22;52016;51.228;-2.322;2022-10-29T22:55:56;15.70;78.50
65406;DHT22;52016;51.228;-2.322;2022-10-29T22:59:38;15.70;78.50
65406;DHT22;52016;51.228;-2.322;2022-10-29T23:03:20;15.70;78.50
65406;DHT22;52016;51.228;-2.322;2022-10-29T23:07:02;15.60;78.60
65406;DHT22;52016;51.228;-2.322;2022-10-29T23:10:44;15.60;78.50
65406;DHT22;52016;51.228;-2.322;2022-10-29T23:14:26;15.60;78.70
65406;DHT22;52016;51.228;-2.322;2022-10-29T23:18:08;15.50;78.60
65406;DHT22;52016;51.228;-2.322;2022-10-29T23:21:50;15.50;78.60
65406;DHT22;52016;51.228;-2.322;2022-10-29T23:25:32;15.50;78.70
65406;DHT22;52016;51.228;-2.322;2022-10-29T23:29:13;15.40;78.60
65406;DHT22;52016;51.228;-2.322;2022-10-29T23:32:55;15.40;78.60
65406;DHT22;52016;51.228;-2.322;2022-10-29T23:36:37;15.40;78.70
65406;DHT22;52016;51.228;-2.322;2022-10-29T23:40:19;15.40;78.80
65406;DHT22;52016;51.228;-2.322;2022-10-29T23:44:01;15.50;78.70
65406;DHT22;52016;51.228;-2.322;2022-10-29T23:47:44;15.40;78.70
65406;DHT22;52016;51.228;-2.322;2022-10-29T23:51:26;15.40;78.70
65406;DHT22;52016;51.228;-2.322;2022-10-29T23:55:08;15.40;78.80
65406;DHT22;52016;51.228;-2.322;2022-10-29T23:58:50;15.40;78.70
